Time;durP1;ratioP1;P1;durP2;ratioP2;P2;SDS_P1;SDS_P2;PMS_P1;PMS_P2;Temp;Humidity;BMP_temperature;BMP_pressure;BME280_temperature;BME280_humidity;BME280_pressure;Samples;Min_cycle;Max_cycle;Signal;HPM_P1;HPM_P2
2021/11/27 00:01:12;;;;;;;17.90;10.60;;;;;;;5.46;70.28;98764.45;24465;1354;3026457;-70
2021/11/27 00:03:41;;;;;;;18.40;10.30;;;;;;;5.27;70.96;98766.27;24469;1358;3052221;-67
2021/11/27 00:06:10;;;;;;;21.30;11.40;;;;;;;5.04;71.94;98759.39;24423;1357;3026553;-66
2021/11/27 00:08:40;;;;;;;16.90;10.20;;;;;;;5.01;72.18;98759.91;24456;1354;3051927;-71
2021/11/27 00:11:09;;;;;;;16.20;9.50;;;;;;;4.99;72.09;98759.31;24442;1354;3026920;-68
2021/11/27 00:13:39;;;;;;;18.90;10.10;;;;;;;4.94;72.35;98758.84;24483;1354;3027344;-66
2021/11/27 00:16:08;;;;;;;17.60;9.20;;;;;;;4.89;72.94;98748.84;24460;1354;3026367;-71
2021/11/27 00:18:37;;;;;;;16.50;9.10;;;;;;;5.43;71.33;98740.26;24449;1357;3054201;-68
2021/11/27 00:21:09;;;;;;;18.50;9.10;;;;;;;5.97;69.34;98726.02;24489;1354;3026432;-68
2021/11/27 00:23:38;;;;;;;16.80;10.00;;;;;;;6.01;68.86;98722.36;24504;1354;3026960;-66
2021/11/27 00:26:15;;;;;;;16.00;9.20;;;;;;;5.89;69.02;98715.83;24491;1354;3055930;-67
2021/11/27 00:28:45;;;;;;;19.20;9.70;;;;;;;5.70;69.65;98713.19;24445;1354;3026879;-73
2021/11/27 00:31:16;;;;;;;17.10;9.10;;;;;;;5.61;69.97;98705.66;24424;1354;3028341;-65
2021/11/27 00:33:47;;;;;;;17.00;9.90;;;;;;;5.42;70.64;98702.62;24476;1357;3051505;-65
2021/11/27 00:36:17;;;;;;;17.50;9.80;;;;;;;5.33;71.17;98695.43;24445;1357;3026713;-69
2021/11/27 00:38:48;;;;;;;16.80;9.40;;;;;;;5.22;71.64;98690.98;24497;1358;3027553;-70
2021/11/27 00:41:18;;;;;;;16.40;9.30;;;;;;;5.05;72.19;98680.19;24448;1357;3027081;-71
2021/11/27 00:43:48;;;;;;;13.80;8.30;;;;;;;4.91;73.23;98674.31;24505;1357;3026424;-71
2021/11/27 00:46:17;;;;;;;14.80;9.30;;;;;;;5.50;71.82;98662.63;24431;1354;3026589;-68
2021/11/27 00:48:47;;;;;;;16.00;9.30;;;;;;;5.82;70.28;98658.29;24444;1354;3026464;-73
2021/11/27 00:51:18;;;;;;;16.10;9.00;;;;;;;5.92;70.04;98647.02;24425;1354;3028199;-66
2021/11/27 00:53:48;;;;;;;15.80;9.00;;;;;;;5.73;70.88;98642.66;24411;1354;3054199;-71
2021/11/27 00:56:17;;;;;;;17.50;9.00;;;;;;;5.53;71.85;98640.91;24419;1355;3026651;-70
2021/11/27 00:58:46;;;;;;;15.50;9.10;;;;;;;5.34;72.85;98638.83;24459;1354;3052534;-71
2021/11/27 01:01:24;;;;;;;16.90;9.30;;;;;;;5.29;73.16;98640.63;24471;1354;3028583;-67
2021/11/27 01:03:54;;;;;;;19.40;9.20;;;;;;;5.08;74.24;98630.58;24445;1351;3056466;-67
2021/11/27 01:06:27;;;;;;;14.10;8.10;;;;;;;5.01;75.26;98623.81;24413;1355;3026643;-69
2021/11/27 01:08:58;;;;;;;14.20;8.60;;;;;;;5.58;73.40;98627.98;24448;1354;3026862;-72
2021/11/27 01:11:32;;;;;;;15.70;8.10;;;;;;;5.80;72.41;98626.44;24476;1357;3058069;-71
2021/11/27 01:14:10;;;;;;;18.60;8.10;;;;;;;5.90;71.88;98613.90;24480;1358;3048758;-66
2021/11/27 01:17:02;;;;;;;17.00;8.70;;;;;;;5.82;71.96;98614.54;24422;1355;3055672;-70
2021/11/27 01:19:34;;;;;;;17.30;9.00;;;;;;;5.47;73.56;98612.75;24443;1354;3051042;-69
2021/11/27 01:22:07;;;;;;;13.90;8.70;;;;;;;5.35;74.12;98613.73;24453;1358;3026350;-66
2021/11/27 01:24:36;;;;;;;19.40;9.80;;;;;;;5.10;74.99;98610.16;24456;1354;3026527;-66
2021/11/27 01:27:06;;;;;;;15.10;7.80;;;;;;;5.09;75.40;98607.27;24499;1354;3026883;-70
2021/11/27 01:29:39;;;;;;;16.40;9.30;;;;;;;5.56;74.13;98601.84;24430;1355;3026769;-69
2021/11/27 01:32:10;;;;;;;13.90;8.20;;;;;;;6.01;72.02;98598.73;24509;1361;3052136;-66
2021/11/27 01:34:40;;;;;;;17.40;8.70;;;;;;;5.93;72.18;98605.73;24463;1357;3030470;-66
2021/11/27 01:37:09;;;;;;;14.70;8.50;;;;;;;5.91;72.24;98598.77;24437;1355;3026746;-67
2021/11/27 01:39:39;;;;;;;15.80;9.20;;;;;;;5.67;73.07;98602.30;24459;1358;3027216;-68
2021/11/27 01:42:09;;;;;;;20.40;9.60;;;;;;;5.44;74.24;98597.11;24431;1361;3026668;-69
2021/11/27 01:44:38;;;;;;;18.20;9.40;;;;;;;5.42;74.38;98594.61;24405;1359;3027264;-68
2021/11/27 01:47:08;;;;;;;17.90;9.40;;;;;;;5.28;75.14;98588.92;24394;1356;3026719;-65
2021/11/27 01:49:37;;;;;;;14.70;8.80;;;;;;;5.25;75.26;98579.51;24470;1351;3025915;-69
2021/11/27 01:52:07;;;;;;;19.70;8.90;;;;;;;5.72;74.19;98573.90;24479;1361;3054351;-68
2021/11/27 01:54:36;;;;;;;15.90;9.20;;;;;;;6.13;72.49;98573.76;24480;1354;3027090;-73
2021/11/27 01:57:05;;;;;;;19.00;9.00;;;;;;;6.17;72.09;98567.05;24470;1353;3026929;-69
2021/11/27 01:59:36;;;;;;;15.00;9.00;;;;;;;5.93;72.94;98561.94;24395;1361;3026585;-72
2021/11/27 02:02:09;;;;;;;17.80;8.80;;;;;;;5.71;73.55;98560.91;24455;1354;3026308;-64
2021/11/27 02:04:38;;;;;;;16.00;9.30;;;;;;;5.71;73.60;98560.20;24401;1361;3026608;-68
2021/11/27 02:07:09;;;;;;;15.50;9.40;;;;;;;5.48;74.60;98558.99;24454;1359;3026213;-69
2021/11/27 02:09:38;;;;;;;15.20;9.30;;;;;;;5.33;75.35;98553.75;24443;1359;3026647;-69
2021/11/27 02:12:08;;;;;;;14.60;8.00;;;;;;;5.38;75.63;98555.20;24406;1354;3050787;-71
2021/11/27 02:14:58;;;;;;;16.60;8.40;;;;;;;6.02;73.96;98555.04;24488;1359;3056519;-71
2021/11/27 02:17:27;;;;;;;14.20;8.20;;;;;;;6.36;72.63;98556.09;24463;1357;3026874;-66
2021/11/27 02:19:57;;;;;;;15.20;7.90;;;;;;;6.48;72.21;98549.84;24464;1357;3054198;-69
2021/11/27 02:22:30;;;;;;;17.80;7.60;;;;;;;6.22;73.12;98553.77;24477;1357;3030048;-65
2021/11/27 02:25:04;;;;;;;13.60;8.30;;;;;;;6.09;73.97;98555.35;24421;1358;3026973;-66
2021/11/27 02:27:36;;;;;;;19.40;8.40;;;;;;;5.97;74.84;98551.48;24404;1356;3057744;-73
2021/11/27 02:30:06;;;;;;;15.00;8.00;;;;;;;5.89;75.31;98551.05;24434;1354;3026691;-70
2021/11/27 02:32:35;;;;;;;13.70;7.20;;;;;;;5.87;75.76;98540.93;24417;1360;3049677;-72
2021/11/27 02:35:05;;;;;;;15.10;7.30;;;;;;;6.28;75.29;98532.20;24454;1354;3026563;-69
2021/11/27 02:37:36;;;;;;;20.00;7.50;;;;;;;6.65;73.85;98526.54;24438;1355;3026164;-68
2021/11/27 02:40:05;;;;;;;14.30;7.90;;;;;;;6.62;73.74;98536.29;24438;1356;3027091;-66
2021/11/27 02:42:35;;;;;;;14.10;7.60;;;;;;;6.56;73.93;98544.27;24488;1358;3026905;-72
2021/11/27 02:45:07;;;;;;;14.70;8.00;;;;;;;6.47;74.27;98538.94;24448;1359;3027006;-69
2021/11/27 02:47:38;;;;;;;11.10;7.20;;;;;;;6.31;74.92;98535.13;24393;1360;3026640;-64
2021/11/27 02:50:08;;;;;;;14.00;8.00;;;;;;;6.14;75.52;98548.84;24488;1362;3027351;-69
2021/11/27 02:52:38;;;;;;;12.60;6.70;;;;;;;6.04;76.43;98547.80;24435;1355;3026257;-69
2021/11/27 02:55:08;;;;;;;15.90;6.30;;;;;;;6.71;74.70;98532.27;24441;1356;3027149;-72
2021/11/27 02:57:37;;;;;;;13.70;6.70;;;;;;;7.21;72.68;98530.88;24432;1358;3026939;-68
2021/11/27 03:00:09;;;;;;;14.00;6.90;;;;;;;7.07;72.69;98530.85;24501;1355;3027106;-65
2021/11/27 03:02:45;;;;;;;14.10;7.20;;;;;;;6.97;73.25;98527.27;24428;1360;3055745;-65
2021/11/27 03:05:14;;;;;;;16.30;8.10;;;;;;;6.71;74.25;98529.34;24497;1351;3027700;-71
2021/11/27 03:07:44;;;;;;;17.90;8.40;;;;;;;6.49;75.25;98529.95;24469;1359;3026574;-68
2021/11/27 03:10:20;;;;;;;14.10;8.10;;;;;;;6.40;75.80;98523.86;24458;1358;3053530;-69
2021/11/27 03:13:09;;;;;;;14.20;6.40;;;;;;;6.32;76.69;98519.24;24416;1361;3052897;-66
2021/11/27 03:15:41;;;;;;;11.10;6.10;;;;;;;7.00;74.59;98515.73;24482;1355;3027062;-67
2021/11/27 03:18:11;;;;;;;12.00;6.50;;;;;;;7.52;72.92;98499.98;24295;1355;3054121;-74
2021/11/27 03:20:40;;;;;;;12.60;6.50;;;;;;;7.39;73.13;98489.81;24447;1355;3026155;-70
2021/11/27 03:23:09;;;;;;;14.20;6.30;;;;;;;7.35;73.49;98482.27;24443;1360;3028275;-69
2021/11/27 03:25:40;;;;;;;10.90;6.80;;;;;;;7.09;74.60;98475.51;24401;1360;3047104;-69
2021/11/27 03:28:10;;;;;;;13.90;6.30;;;;;;;6.89;75.72;98468.71;24450;1361;3028623;-69
2021/11/27 03:30:39;;;;;;;13.60;6.80;;;;;;;6.71;77.41;98476.61;24447;1355;3027965;-71
2021/11/27 03:33:10;;;;;;;11.80;5.90;;;;;;;7.16;76.49;98462.17;24473;1360;3048105;-70
2021/11/27 03:35:40;;;;;;;13.50;5.20;;;;;;;7.55;75.06;98453.30;24491;1354;3026657;-68
2021/11/27 03:38:10;;;;;;;12.70;5.60;;;;;;;7.56;74.93;98452.39;24420;1359;3068816;-70
2021/11/27 03:40:40;;;;;;;14.40;5.10;;;;;;;7.35;76.08;98447.76;24454;1355;3027613;-66
2021/11/27 03:43:09;;;;;;;9.00;5.60;;;;;;;7.27;76.54;98447.55;24416;1359;3026689;-69
2021/11/27 03:45:40;;;;;;;9.70;5.60;;;;;;;7.06;77.70;98448.17;24402;1358;3071185;-67
2021/11/27 03:48:13;;;;;;;6.60;4.20;;;;;;;7.07;77.96;98450.17;24449;1358;3027603;-66
2021/11/27 03:51:07;;;;;;;10.50;4.10;;;;;;;7.60;76.73;98443.87;24489;1360;3051808;-71
2021/11/27 03:53:38;;;;;;;9.90;4.40;;;;;;;7.80;76.48;98446.29;24434;1363;3026430;-67
2021/11/27 03:56:17;;;;;;;10.00;4.30;;;;;;;7.80;76.28;98446.81;24455;1360;3051163;-71
2021/11/27 03:58:49;;;;;;;;;;;;;;;7.62;77.10;98439.23;24466;1361;3054545;-69
2021/11/27 04:01:18;;;;;;;10.30;5.10;;;;;;;7.40;78.15;98437.88;24463;1355;3026581;-67
2021/11/27 04:03:51;;;;;;;11.10;4.10;;;;;;;7.31;79.52;98438.44;24452;1355;3050901;-66
2021/11/27 04:06:23;;;;;;;9.40;4.50;;;;;;;7.75;78.51;98428.98;24427;1355;3054929;-73
2021/11/27 04:08:54;;;;;;;8.10;4.00;;;;;;;8.07;77.55;98423.08;24453;1354;3026533;-66
2021/11/27 04:11:24;;;;;;;9.60;5.00;;;;;;;8.11;77.21;98416.15;24451;1360;3026606;-65
2021/11/27 04:13:55;;;;;;;9.20;4.00;;;;;;;7.94;78.00;98422.34;24410;1361;3026899;-66
2021/11/27 04:16:25;;;;;;;10.30;4.50;;;;;;;7.67;79.43;98429.35;24488;1356;3027634;-75
2021/11/27 04:18:54;;;;;;;9.50;3.70;;;;;;;7.52;80.63;98419.86;24440;1355;3026769;-68
2021/11/27 04:21:24;;;;;;;10.60;3.50;;;;;;;8.15;78.75;98413.13;24441;1355;3052401;-69
2021/11/27 04:23:53;;;;;;;6.00;3.10;;;;;;;8.42;77.73;98411.65;24534;1356;3027772;-68
2021/11/27 04:26:22;;;;;;;12.80;4.40;;;;;;;8.30;77.72;98412.82;24421;1360;3055857;-70
2021/11/27 04:28:53;;;;;;;11.40;3.80;;;;;;;8.06;79.05;98408.61;24424;1355;3026805;-66
2021/11/27 04:31:22;;;;;;;12.00;4.60;;;;;;;7.93;79.65;98410.58;24439;1355;3026932;-69
2021/11/27 04:33:51;;;;;;;8.80;3.80;;;;;;;7.72;80.91;98406.52;24434;1359;3026851;-73
2021/11/27 04:36:21;;;;;;;10.40;4.10;;;;;;;8.10;80.09;98399.84;24422;1358;3050296;-73
2021/11/27 04:38:50;;;;;;;8.50;3.60;;;;;;;8.40;78.91;98401.30;24473;1357;3027381;-67
2021/11/27 04:41:20;;;;;;;12.60;4.50;;;;;;;8.37;78.77;98397.11;24450;1362;3026521;-69
2021/11/27 04:43:50;;;;;;;9.10;4.50;;;;;;;8.31;78.72;98396.16;24411;1361;3051126;-69
2021/11/27 04:46:19;;;;;;;7.30;3.40;;;;;;;8.17;79.15;98400.21;24473;1361;3026623;-73
2021/11/27 04:48:48;;;;;;;12.70;3.80;;;;;;;8.06;79.91;98394.85;24495;1357;3057657;-71
2021/11/27 04:51:17;;;;;;;9.10;3.90;;;;;;;8.27;79.78;98408.96;24389;1357;3025986;-70
2021/11/27 04:53:47;;;;;;;11.50;3.60;;;;;;;8.50;78.62;98402.86;24380;1356;3054523;-73
2021/11/27 04:56:16;;;;;;;12.00;3.90;;;;;;;8.38;78.83;98403.56;24391;1357;3026690;-74
2021/11/27 04:58:46;;;;;;;12.90;4.20;;;;;;;8.27;79.28;98403.57;24474;1351;3026909;-69
2021/11/27 05:01:17;;;;;;;10.50;4.20;;;;;;;8.15;79.75;98406.13;24474;1357;3026299;-71
2021/11/27 05:03:52;;;;;;;11.70;4.10;;;;;;;8.13;79.82;98402.27;24461;1351;3056542;-70
2021/11/27 05:06:22;;;;;;;8.20;3.00;;;;;;;8.61;78.58;98396.53;24403;1358;3026517;-73
2021/11/27 05:08:51;;;;;;;4.90;3.20;;;;;;;8.66;78.26;98391.16;24465;1355;3053100;-68
2021/11/27 05:11:21;;;;;;;8.50;3.90;;;;;;;8.46;78.96;98394.30;24465;1358;3026698;-70
2021/11/27 05:13:52;;;;;;;9.40;3.60;;;;;;;8.43;79.11;98394.80;24418;1359;3028093;-73
2021/11/27 05:16:23;;;;;;;9.20;4.00;;;;;;;8.25;79.62;98382.61;24468;1355;3028564;-61
2021/11/27 05:18:53;;;;;;;9.00;3.40;;;;;;;8.10;80.35;98379.23;24439;1359;3030665;-68
2021/11/27 05:21:41;;;;;;;8.20;2.80;;;;;;;8.52;79.43;98374.84;24446;1355;3068514;-69
2021/11/27 05:24:10;;;;;;;7.90;3.20;;;;;;;8.68;78.40;98374.64;24422;1359;3028967;-68
2021/11/27 05:26:56;;;;;;;7.70;3.60;;;;;;;8.44;79.22;98373.67;24440;1354;3051483;-68
2021/11/27 05:29:54;;;;;;;7.80;3.30;;;;;;;8.08;80.66;98370.27;24464;1360;3071145;-67
2021/11/27 05:35:08;;;;;;;6.80;2.90;;;;;;;8.39;79.96;98360.16;24428;1351;3052747;-69
2021/11/27 05:37:38;;;;;;;5.10;3.00;;;;;;;8.49;79.45;98360.38;24452;1359;3027330;-65
2021/11/27 05:40:08;;;;;;;7.00;3.60;;;;;;;8.43;80.07;98365.52;24477;1355;3026214;-66
2021/11/27 05:42:38;;;;;;;6.50;3.50;;;;;;;8.37;79.91;98364.83;24458;1360;3051926;-70
2021/11/27 05:45:07;;;;;;;6.60;2.90;;;;;;;8.21;80.43;98370.29;24435;1357;3030159;-62
2021/11/27 05:47:37;;;;;;;7.80;3.20;;;;;;;8.17;81.23;98365.52;24411;1358;3046995;-69
2021/11/27 05:50:08;;;;;;;8.00;3.10;;;;;;;8.66;79.92;98350.66;24445;1358;3027482;-67
2021/11/27 05:52:41;;;;;;;10.50;3.20;;;;;;;8.73;79.34;98344.94;24440;1360;3055072;-68
2021/11/27 05:55:11;;;;;;;6.60;3.10;;;;;;;8.58;79.87;98356.44;24477;1356;3026665;-67
2021/11/27 05:57:40;;;;;;;7.80;3.20;;;;;;;8.43;80.40;98364.40;24475;1361;3026410;-70
2021/11/27 06:00:10;;;;;;;7.60;3.10;;;;;;;8.36;80.89;98359.89;24488;1359;3052298;-67
2021/11/27 06:02:42;;;;;;;7.10;3.00;;;;;;;8.21;81.87;98360.02;24448;1351;3027589;-70
2021/11/27 06:05:11;;;;;;;5.90;2.60;;;;;;;8.61;80.97;98353.11;24467;1357;3026437;-72
2021/11/27 06:07:40;;;;;;;7.20;3.50;;;;;;;8.83;79.63;98344.04;24430;1358;3026014;-66
2021/11/27 06:10:10;;;;;;;6.50;3.00;;;;;;;8.87;79.36;98338.35;24443;1361;3026506;-71
2021/11/27 06:12:41;;;;;;;6.10;2.60;;;;;;;8.58;80.44;98343.02;24453;1357;3026422;-66
2021/11/27 06:15:10;;;;;;;6.60;3.30;;;;;;;8.44;81.12;98339.58;24501;1355;3027232;-69
2021/11/27 06:17:59;;;;;;;7.60;2.90;;;;;;;8.32;81.98;98340.24;24430;1359;3054069;-69
2021/11/27 06:20:28;;;;;;;7.60;3.00;;;;;;;8.76;80.22;98333.17;24434;1355;3026822;-65
2021/11/27 06:22:57;;;;;;;5.40;2.40;;;;;;;8.99;79.21;98329.61;24477;1359;3026465;-68
2021/11/27 06:25:29;;;;;;;10.70;3.70;;;;;;;8.65;80.24;98335.02;24444;1361;3026325;-71
2021/11/27 06:28:00;;;;;;;5.80;2.80;;;;;;;8.44;81.21;98338.02;24450;1359;3026535;-68
2021/11/27 06:30:29;;;;;;;9.00;3.20;;;;;;;8.35;81.53;98341.95;24467;1358;3026650;-67
2021/11/27 06:33:10;;;;;;;11.00;2.70;;;;;;;8.21;82.24;98331.05;24469;1361;3052223;-68
2021/11/27 06:35:40;;;;;;;7.80;3.00;;;;;;;8.65;81.24;98325.74;24456;1359;3055762;-69
2021/11/27 06:38:09;;;;;;;4.40;2.60;;;;;;;8.77;80.21;98323.16;24448;1358;3028141;-74
2021/11/27 06:40:38;;;;;;;6.40;3.30;;;;;;;8.60;80.90;98328.90;24478;1359;3056238;-69
2021/11/27 06:43:30;;;;;;;7.50;3.50;;;;;;;8.24;82.47;98326.50;24431;1360;3055821;-66
2021/11/27 06:46:03;;;;;;;3.60;2.20;;;;;;;8.23;82.96;98320.26;24455;1354;3029344;-70
2021/11/27 06:48:32;;;;;;;5.00;2.20;;;;;;;8.62;81.74;98306.92;24509;1351;3026795;-66
2021/11/27 06:51:01;;;;;;;4.20;2.00;;;;;;;8.68;81.23;98308.45;24478;1357;3052346;-67
2021/11/27 06:53:30;;;;;;;2.90;2.00;;;;;;;8.60;81.49;98308.81;24453;1360;3027687;-65
2021/11/27 06:56:00;;;;;;;4.90;2.30;;;;;;;8.35;82.30;98308.98;24462;1354;3052072;-71
2021/11/27 06:58:30;;;;;;;5.90;2.70;;;;;;;8.22;83.19;98303.27;24450;1361;3027296;-69
2021/11/27 07:01:22;;;;;;;5.30;2.40;;;;;;;8.80;81.28;98302.03;24440;1362;3059680;-64
2021/11/27 07:04:10;;;;;;;4.50;2.40;;;;;;;8.94;80.23;98290.17;24424;1355;3050043;-66
2021/11/27 07:06:58;;;;;;;5.60;2.80;;;;;;;8.49;81.51;98291.80;24446;1351;3054428;-67
2021/11/27 07:09:47;;;;;;;7.10;2.70;;;;;;;8.38;81.93;98293.77;24478;1357;3054787;-66
2021/11/27 07:12:59;;;;;;;3.80;1.90;;;;;;;8.33;82.69;98295.37;24434;1354;3071416;-70
2021/11/27 07:15:29;;;;;;;6.50;2.70;;;;;;;8.74;81.15;98293.70;24505;1357;3027092;-67
2021/11/27 07:17:58;;;;;;;4.30;2.40;;;;;;;8.70;81.22;98284.21;24479;1359;3027342;-67
2021/11/27 07:20:27;;;;;;;5.40;2.50;;;;;;;8.56;81.90;98293.92;24478;1357;3070807;-67
2021/11/27 07:22:56;;;;;;;4.00;2.80;;;;;;;8.40;82.43;98283.67;24415;1354;3027794;-68
2021/11/27 07:25:32;;;;;;;7.30;2.30;;;;;;;8.39;83.06;98291.45;24424;1354;3025591;-66
2021/11/27 07:28:21;;;;;;;4.50;2.50;;;;;;;8.83;81.39;98271.93;24483;1359;3052636;-68
2021/11/27 07:30:52;;;;;;;5.50;2.70;;;;;;;8.85;80.70;98264.09;24401;1354;3026382;-66
2021/11/27 07:33:21;;;;;;;4.50;2.70;;;;;;;8.80;80.48;98267.41;24446;1351;3026505;-66
2021/11/27 07:35:51;;;;;;;8.20;3.20;;;;;;;8.56;81.49;98274.05;24463;1360;3053511;-65
2021/11/27 07:38:20;;;;;;;5.60;1.90;;;;;;;8.44;81.94;98276.11;24424;1358;3026138;-66
2021/11/27 07:40:49;;;;;;;5.90;2.80;;;;;;;8.66;81.16;98276.48;24450;1357;3026893;-70
2021/11/27 07:43:19;;;;;;;6.40;3.20;;;;;;;8.93;80.20;98276.27;24455;1354;3055053;-68
2021/11/27 07:46:06;;;;;;;8.20;3.30;;;;;;;8.72;80.54;98273.75;24444;1354;3056764;-68
2021/11/27 07:48:55;;;;;;;9.20;4.60;;;;;;;8.57;80.82;98271.16;24452;1357;3052435;-69
2021/11/27 07:51:43;;;;;;;7.60;2.90;;;;;;;8.30;82.15;98276.20;24447;1355;3052170;-68
2021/11/27 07:54:12;;;;;;;5.50;2.60;;;;;;;8.60;81.60;98270.11;24470;1354;3026490;-68
2021/11/27 07:56:42;;;;;;;6.50;2.80;;;;;;;8.86;80.35;98265.41;24412;1354;3026606;-70
2021/11/27 07:59:13;;;;;;;8.10;3.60;;;;;;;8.67;80.85;98275.67;24468;1357;3026937;-70
2021/11/27 08:01:43;;;;;;;6.80;2.90;;;;;;;8.42;81.58;98274.98;24432;1357;3026770;-70
2021/11/27 08:04:24;;;;;;;9.20;2.60;;;;;;;8.17;82.92;98266.26;24482;1361;3053948;-65
2021/11/27 08:06:54;;;;;;;5.50;2.30;;;;;;;8.68;81.69;98257.46;24396;1354;3026712;-68
2021/11/27 08:09:23;;;;;;;5.90;2.60;;;;;;;8.93;80.21;98250.42;24462;1354;3028788;-71
2021/11/27 08:11:52;;;;;;;5.50;2.90;;;;;;;8.67;81.11;98243.04;24491;1354;3026069;-68
2021/11/27 08:14:26;;;;;;;5.60;2.70;;;;;;;8.50;81.96;98247.95;24382;1357;3055968;-70
2021/11/27 08:16:55;;;;;;;6.30;3.20;;;;;;;8.41;82.26;98246.25;24431;1360;3051709;-66
2021/11/27 08:19:25;;;;;;;3.50;1.90;;;;;;;8.39;82.56;98239.63;24468;1351;3030126;-68
2021/11/27 08:21:55;;;;;;;6.50;2.40;;;;;;;8.80;81.32;98235.01;24457;1358;3055848;-69
2021/11/27 08:24:25;;;;;;;7.20;2.90;;;;;;;8.96;80.35;98227.65;24442;1354;3026926;-71
2021/11/27 08:26:54;;;;;;;4.80;2.60;;;;;;;8.71;81.14;98231.92;24431;1358;3051324;-70
2021/11/27 08:29:23;;;;;;;3.10;2.30;;;;;;;8.46;82.14;98230.89;24468;1357;3028863;-70
2021/11/27 08:31:52;;;;;;;6.30;3.50;;;;;;;8.37;83.02;98228.56;24453;1354;3054643;-67
2021/11/27 08:34:22;;;;;;;7.80;2.70;;;;;;;8.67;82.18;98224.00;24444;1357;3026607;-71
2021/11/27 08:36:54;;;;;;;6.00;3.20;;;;;;;8.81;81.67;98218.13;24425;1355;3050793;-69
2021/11/27 08:39:23;;;;;;;8.30;3.80;;;;;;;8.93;81.11;98210.98;24436;1354;3026303;-72
2021/11/27 08:41:52;;;;;;;8.50;4.00;;;;;;;8.78;81.51;98208.56;24452;1356;3026962;-69
2021/11/27 08:44:21;;;;;;;6.20;3.10;;;;;;;8.53;82.64;98213.88;24483;1354;3048605;-67
2021/11/27 08:46:50;;;;;;;7.30;3.10;;;;;;;8.43;83.26;98207.76;24509;1354;3029702;-70
2021/11/27 08:49:20;;;;;;;7.20;3.40;;;;;;;8.86;82.27;98201.85;24436;1354;3070343;-72
2021/11/27 08:51:49;;;;;;;9.40;4.90;;;;;;;9.35;80.19;98201.09;24503;1354;3028407;-64
2021/11/27 08:54:18;;;;;;;13.60;6.00;;;;;;;9.00;81.03;98203.65;24463;1356;3053510;-74
2021/11/27 08:56:48;;;;;;;11.40;5.20;;;;;;;8.94;81.46;98193.10;24379;1354;3026483;-71
2021/11/27 08:59:17;;;;;;;10.60;4.50;;;;;;;8.66;82.47;98179.05;24429;1351;3028522;-67
2021/11/27 09:01:47;;;;;;;7.30;3.10;;;;;;;8.60;83.14;98178.65;24448;1355;3026898;-67
2021/11/27 09:04:16;;;;;;;9.40;4.10;;;;;;;9.14;81.52;98179.67;24457;1358;3026968;-61
2021/11/27 09:06:47;;;;;;;7.30;3.50;;;;;;;9.28;80.33;98175.17;24392;1361;3051475;-67
2021/11/27 09:09:16;;;;;;;11.90;4.80;;;;;;;9.23;80.79;98172.95;24428;1359;3026336;-71
2021/11/27 09:11:45;;;;;;;10.40;4.20;;;;;;;9.10;80.84;98169.39;24454;1354;3027350;-70
2021/11/27 09:14:15;;;;;;;8.30;3.30;;;;;;;8.83;81.71;98173.11;24482;1354;3026523;-69
2021/11/27 09:17:04;;;;;;;8.20;4.10;;;;;;;8.62;83.19;98168.87;24442;1358;3051122;-70
2021/11/27 09:19:33;;;;;;;8.10;4.10;;;;;;;9.10;81.99;98173.55;24445;1356;3027202;-72
2021/11/27 09:22:02;;;;;;;7.80;4.20;;;;;;;9.36;80.73;98167.38;24485;1354;3051248;-68
2021/11/27 09:24:32;;;;;;;11.30;4.30;;;;;;;9.21;80.87;98163.66;24474;1359;3026745;-70
2021/11/27 09:27:01;;;;;;;10.00;4.90;;;;;;;9.08;81.33;98160.40;24453;1354;3026386;-72
2021/11/27 09:29:30;;;;;;;7.90;3.90;;;;;;;9.03;81.41;98157.49;24443;1361;3051291;-66
2021/11/27 09:31:59;;;;;;;11.40;4.50;;;;;;;9.33;80.72;98161.16;24485;1354;3030009;-71
2021/11/27 09:34:29;;;;;;;11.60;5.60;;;;;;;9.52;80.10;98151.31;24453;1354;3071438;-67
2021/11/27 09:37:00;;;;;;;20.30;6.80;;;;;;;9.45;80.16;98152.71;24419;1358;3025948;-67
2021/11/27 09:39:29;;;;;;;14.80;6.00;;;;;;;9.23;81.16;98146.69;24443;1351;3051856;-68
2021/11/27 09:41:59;;;;;;;10.00;4.10;;;;;;;9.00;82.25;98139.38;24463;1354;3026137;-74
2021/11/27 09:44:34;;;;;;;14.10;6.00;;;;;;;9.55;80.72;98131.48;24428;1354;3026624;-72
2021/11/27 09:47:04;;;;;;;11.00;5.80;;;;;;;9.71;79.63;98136.44;24445;1361;3054825;-66
2021/11/27 09:49:33;;;;;;;15.20;7.60;;;;;;;9.37;80.56;98141.11;24456;1358;3026418;-67
2021/11/27 09:52:02;;;;;;;16.30;6.40;;;;;;;9.24;81.13;98142.92;24430;1360;3027011;-73
2021/11/27 09:54:31;;;;;;;14.70;5.70;;;;;;;9.23;81.56;98144.61;24428;1358;3026883;-69
2021/11/27 09:57:01;;;;;;;14.20;5.90;;;;;;;9.56;80.93;98145.91;24415;1356;3051659;-67
2021/11/27 09:59:30;;;;;;;17.80;7.10;;;;;;;9.73;80.09;98143.61;24455;1354;3027318;-72
2021/11/27 10:01:59;;;;;;;17.00;7.50;;;;;;;9.75;80.21;98144.99;24467;1357;3029837;-69
2021/11/27 10:04:29;;;;;;;17.90;7.70;;;;;;;9.56;80.90;98158.70;24459;1354;3054163;-70
2021/11/27 10:06:59;;;;;;;17.30;7.70;;;;;;;9.40;81.38;98158.02;24485;1351;3027280;-65
2021/11/27 10:09:28;;;;;;;17.20;6.90;;;;;;;9.38;81.90;98157.49;24475;1358;3053002;-67
2021/11/27 10:11:58;;;;;;;21.20;7.90;;;;;;;9.78;81.62;98156.65;24425;1354;3026405;-68
2021/11/27 10:14:28;;;;;;;25.10;8.80;;;;;;;10.01;80.43;98150.49;24425;1354;3026592;-67
2021/11/27 10:17:18;;;;;;;22.00;10.50;;;;;;;9.79;81.21;98149.94;24428;1351;3052414;-70
2021/11/27 10:19:52;;;;;;;27.20;11.70;;;;;;;9.68;82.01;98155.17;24503;1361;3027459;-69
2021/11/27 10:22:47;;;;;;;24.10;8.70;;;;;;;9.68;82.29;98153.44;24450;1354;3058042;-70
2021/11/27 10:25:37;;;;;;;20.40;10.10;;;;;;;10.20;80.96;98144.31;24397;1358;3052315;-70
2021/11/27 10:28:28;;;;;;;31.30;10.60;;;;;;;10.37;79.94;98138.02;24529;1351;3053584;-70
2021/11/27 10:31:00;;;;;;;23.80;11.10;;;;;;;10.27;80.13;98140.94;24442;1357;3053128;-71
2021/11/27 10:33:36;;;;;;;24.70;11.60;;;;;;;10.23;80.24;98141.39;24433;1354;3027740;-72
2021/11/27 10:36:07;;;;;;;23.50;8.50;;;;;;;10.00;81.06;98143.55;24452;1363;3047703;-70
2021/11/27 10:38:46;;;;;;;22.10;9.90;;;;;;;10.23;81.38;98135.30;24450;1358;3027230;-72
2021/11/27 10:41:16;;;;;;;24.30;11.00;;;;;;;10.56;79.95;98132.17;24463;1361;3054940;-71
2021/11/27 10:44:15;;;;;;;27.10;10.60;;;;;;;10.51;80.28;98137.22;24437;1351;3026267;-68
2021/11/27 10:46:44;;;;;;;30.20;11.20;;;;;;;10.19;81.69;98138.75;24420;1356;3049565;-72
2021/11/27 10:49:23;;;;;;;24.00;7.20;;;;;;;10.16;82.31;98139.83;24438;1357;3029223;-69
2021/11/27 10:52:09;;;;;;;16.80;7.00;;;;;;;10.38;81.94;98145.85;24430;1354;3057237;-72
2021/11/27 10:54:48;;;;;;;22.50;7.90;;;;;;;10.69;80.87;98145.58;24457;1354;3049859;-66
2021/11/27 10:57:37;;;;;;;17.30;7.90;;;;;;;10.73;80.43;98146.83;24427;1353;3052172;-69
2021/11/27 11:00:09;;;;;;;29.80;9.00;;;;;;;10.39;81.95;98155.17;24416;1356;3050578;-71
2021/11/27 11:02:39;;;;;;;18.50;5.80;;;;;;;10.22;82.85;98147.62;24477;1354;3026387;-64
2021/11/27 11:05:11;;;;;;;18.30;6.70;;;;;;;10.58;82.04;98149.46;24452;1358;3026381;-69
2021/11/27 11:07:41;;;;;;;14.40;6.50;;;;;;;10.70;81.18;98152.16;24458;1358;3027249;-74
2021/11/27 11:10:21;;;;;;;21.80;7.40;;;;;;;10.43;82.36;98155.92;24480;1354;3028245;-65
2021/11/27 11:12:52;;;;;;;19.30;8.30;;;;;;;10.45;82.35;98152.27;24482;1351;3057718;-70
2021/11/27 11:15:26;;;;;;;17.40;6.70;;;;;;;10.49;82.22;98150.58;24506;1359;3026836;-68
2021/11/27 11:18:16;;;;;;;17.10;6.90;;;;;;;10.87;81.22;98147.09;24476;1354;3052271;-70
2021/11/27 11:20:58;;;;;;;21.70;8.50;;;;;;;10.99;80.63;98147.54;24461;1354;3054601;-73
2021/11/27 11:23:27;;;;;;;19.20;7.10;;;;;;;11.15;79.87;98150.04;24424;1357;3068051;-74
2021/11/27 11:26:14;;;;;;;20.40;8.00;;;;;;;10.89;80.71;98150.23;24458;1354;3026288;-73
2021/11/27 11:28:58;;;;;;;21.00;6.30;;;;;;;10.68;81.93;98155.86;24432;1361;3055193;-64
2021/11/27 11:31:34;;;;;;;15.30;6.30;;;;;;;11.31;80.27;98154.45;24444;1361;3054655;-76
2021/11/27 11:34:03;;;;;;;18.90;7.60;;;;;;;11.25;79.71;98161.48;24527;1354;3028896;-73
2021/11/27 11:36:32;;;;;;;20.60;7.80;;;;;;;11.09;80.71;98159.31;24419;1359;3026873;-68
2021/11/27 11:39:02;;;;;;;28.90;8.80;;;;;;;11.08;80.73;98156.57;24469;1355;3026577;-69
2021/11/27 11:41:32;;;;;;;17.90;6.90;;;;;;;11.02;81.08;98151.64;24488;1358;3059514;-72
2021/11/27 11:44:01;;;;;;;16.40;6.70;;;;;;;11.29;80.48;98148.02;24521;1358;3026471;-65
2021/11/27 11:46:30;;;;;;;18.10;7.80;;;;;;;11.65;78.99;98143.58;24438;1354;3027526;-69